Time;durP1;ratioP1;P1;durP2;ratioP2;P2;SDS_P1;SDS_P2;PMS_P1;PMS_P2;Temp;Humidity;BMP_temperature;BMP_pressure;BME280_temperature;BME280_humidity;BME280_pressure;Samples;Min_cycle;Max_cycle;Signal;HPM_P1;HPM_P2
2022/09/23 00:01:03;;;;;;;4.50;3.40;;;;;;;8.18;64.81;99248.53;5093047;28;42519;-77
2022/09/23 00:03:33;;;;;;;4.47;3.20;;;;;;;8.17;64.84;99254.75;5058171;28;40621;-77
2022/09/23 00:06:02;;;;;;;4.00;3.00;;;;;;;8.02;64.43;99242.28;5091826;28;39572;-77
2022/09/23 00:08:30;;;;;;;3.70;3.33;;;;;;;8.09;64.39;99263.94;5057201;28;41783;-76
2022/09/23 00:11:04;;;;;;;3.53;2.97;;;;;;;8.04;64.66;99255.38;5074834;28;42580;-77
2022/09/23 00:13:33;;;;;;;4.93;3.30;;;;;;;8.02;64.46;99260.75;5075044;28;41499;-77
2022/09/23 00:16:03;;;;;;;3.00;2.33;;;;;;;7.99;64.46;99258.25;5057908;28;39971;-77
2022/09/23 00:18:32;;;;;;;4.97;3.10;;;;;;;7.96;64.14;99258.38;5092630;28;44146;-77
2022/09/23 00:21:02;;;;;;;4.77;2.83;;;;;;;7.94;64.21;99265.50;5074569;28;41773;-77
2022/09/23 00:23:30;;;;;;;3.27;2.77;;;;;;;7.86;64.33;99257.09;5074432;28;42407;-77
2022/09/23 00:25:59;;;;;;;3.80;3.20;;;;;;;7.88;64.10;99260.53;5074514;28;39156;-77
2022/09/23 00:28:27;;;;;;;4.60;3.00;;;;;;;7.84;64.07;99267.72;5057671;28;41955;-77
2022/09/23 00:30:55;;;;;;;3.00;2.70;;;;;;;7.83;64.08;99265.13;5091494;28;42966;-76
2022/09/23 00:33:23;;;;;;;2.97;2.67;;;;;;;7.79;64.34;99269.69;5073757;28;42671;-77
2022/09/23 00:35:59;;;;;;;3.90;3.50;;;;;;;7.71;64.40;99253.34;5092247;28;40666;-77
2022/09/23 00:38:26;;;;;;;4.40;3.07;;;;;;;7.76;64.28;99261.06;5092097;28;41726;-77
2022/09/23 00:41:14;;;;;;;4.00;3.10;;;;;;;7.65;64.27;99252.78;5089844;28;43328;-78
2022/09/23 00:43:43;;;;;;;4.10;3.07;;;;;;;7.71;64.44;99265.69;5057597;28;42318;-77
2022/09/23 00:46:16;;;;;;;3.30;2.97;;;;;;;7.68;64.86;99252.63;5092695;28;40024;-78
2022/09/23 00:48:46;;;;;;;3.27;2.80;;;;;;;7.66;64.56;99258.00;5074411;28;40928;-77
2022/09/23 00:51:20;;;;;;;2.90;2.60;;;;;;;7.65;64.54;99256.28;5091464;28;43480;-77
2022/09/23 00:53:50;;;;;;;3.03;2.43;;;;;;;7.62;64.61;99250.28;5074564;28;41580;-78
2022/09/23 00:56:20;;;;;;;4.83;2.83;;;;;;;7.61;64.53;99256.47;5074257;28;38812;-77
2022/09/23 00:58:49;;;;;;;3.50;2.90;;;;;;;7.58;64.64;99253.03;5073865;28;40967;-77
2022/09/23 01:01:17;;;;;;;3.77;2.93;;;;;;;7.56;64.87;99249.63;5074121;28;41257;-77
2022/09/23 01:03:46;;;;;;;3.53;2.77;;;;;;;7.52;64.86;99253.31;5073964;28;42279;-77
2022/09/23 01:06:15;;;;;;;3.30;3.00;;;;;;;7.51;65.37;99233.16;5074208;28;39965;-77
2022/09/23 01:08:46;;;;;;;3.47;3.10;;;;;;;7.34;65.50;99217.22;5073949;28;43583;-77
2022/09/23 01:11:37;;;;;;;4.37;3.07;;;;;;;7.47;65.56;99250.03;5057748;28;42058;-78
2022/09/23 01:14:34;;;;;;;3.67;3.30;;;;;;;7.32;65.41;99224.34;5057187;28;41092;-77
2022/09/23 01:17:07;;;;;;;3.63;3.20;;;;;;;7.43;65.28;99234.41;5071300;28;39948;-77
2022/09/23 01:19:53;;;;;;;3.47;3.17;;;;;;;7.41;65.77;99239.78;5071134;28;41676;-77
2022/09/23 01:22:34;;;;;;;5.60;3.37;;;;;;;7.39;65.91;99241.59;5088216;28;42935;-77
2022/09/23 01:25:27;;;;;;;3.83;2.90;;;;;;;7.38;65.63;99237.25;5087850;28;43311;-77
2022/09/23 01:28:18;;;;;;;3.20;2.90;;;;;;;7.35;65.52;99234.75;5090391;28;41112;-77
2022/09/23 01:30:56;;;;;;;3.13;2.53;;;;;;;7.31;65.59;99233.16;5072385;28;42635;-77
2022/09/23 01:33:28;;;;;;;2.83;2.60;;;;;;;7.28;65.54;99232.47;5077589;28;41493;-77
2022/09/23 01:36:06;;;;;;;3.63;2.93;;;;;;;7.26;65.35;99237.78;5093011;28;42138;-77
2022/09/23 01:38:50;;;;;;;3.37;3.07;;;;;;;7.24;65.48;99247.53;5060565;28;40307;-77
2022/09/23 01:41:31;;;;;;;3.10;2.80;;;;;;;7.22;65.75;99238.81;5077501;28;41132;-77
2022/09/23 01:44:06;;;;;;;3.67;3.10;;;;;;;7.20;66.05;99232.75;5094946;28;44096;-77
2022/09/23 01:46:41;;;;;;;4.70;3.80;;;;;;;7.18;66.27;99222.28;5092466;28;42345;-77
2022/09/23 01:49:16;;;;;;;3.37;3.07;;;;;;;7.19;66.06;99229.28;5077299;28;40340;-77
2022/09/23 01:51:49;;;;;;;3.90;3.20;;;;;;;7.17;66.38;99231.13;5092123;28;42485;-78
2022/09/23 01:54:24;;;;;;;3.87;3.20;;;;;;;7.10;66.12;99218.28;5093808;28;42869;-77
2022/09/23 01:56:57;;;;;;;4.50;3.67;;;;;;;7.14;66.56;99225.13;5092781;28;43118;-78
2022/09/23 01:59:32;;;;;;;4.97;3.40;;;;;;;7.13;66.73;99223.44;5077204;28;40104;-77
2022/09/23 02:02:05;;;;;;;5.20;3.57;;;;;;;7.11;66.41;99223.50;5077688;28;41676;-77
2022/09/23 02:04:40;;;;;;;3.60;3.27;;;;;;;7.00;66.51;99211.69;5077007;28;41640;-77
2022/09/23 02:07:15;;;;;;;4.27;2.93;;;;;;;7.08;66.57;99225.38;5076663;28;43444;-77
2022/09/23 02:09:47;;;;;;;3.57;2.53;;;;;;;7.06;66.66;99221.97;5077553;28;40307;-77
2022/09/23 02:12:19;;;;;;;3.17;2.87;;;;;;;7.05;66.78;99220.25;5090924;28;41454;-77
2022/09/23 02:14:50;;;;;;;4.93;3.40;;;;;;;7.03;66.51;99224.75;5094332;28;43483;-77
2022/09/23 02:17:26;;;;;;;3.40;3.10;;;;;;;6.93;66.79;99210.22;5076690;28;41551;-77
2022/09/23 02:20:00;;;;;;;5.53;3.00;;;;;;;6.97;66.33;99222.34;5077276;28;40578;-77
2022/09/23 02:22:33;;;;;;;4.50;3.30;;;;;;;6.93;66.30;99221.63;5059695;28;40536;-77
2022/09/23 02:25:03;;;;;;;4.00;2.87;;;;;;;6.92;66.25;99221.72;5091932;28;42663;-77
2022/09/23 02:27:36;;;;;;;3.90;3.20;;;;;;;6.76;66.16;99203.06;5093724;28;43155;-77
2022/09/23 02:30:10;;;;;;;2.97;2.77;;;;;;;6.85;66.10;99216.69;5076891;28;41848;-77
2022/09/23 02:32:49;;;;;;;2.67;2.43;;;;;;;6.83;66.41;99223.78;5074330;28;41931;-76
2022/09/23 02:35:24;;;;;;;4.07;3.03;;;;;;;6.79;66.32;99224.84;5076681;28;42792;-78
2022/09/23 02:38:01;;;;;;;3.83;2.90;;;;;;;6.76;66.44;99224.97;5076369;28;42272;-77
2022/09/23 02:40:37;;;;;;;4.87;3.87;;;;;;;6.74;66.48;99213.66;5076517;28;38959;-78
2022/09/23 02:43:09;;;;;;;3.20;2.67;;;;;;;6.74;66.76;99215.41;5076066;28;40686;-77
2022/09/23 02:45:38;;;;;;;3.70;3.20;;;;;;;6.67;67.00;99203.44;5090623;28;43818;-77
2022/09/23 02:48:13;;;;;;;3.63;2.70;;;;;;;6.71;66.99;99215.53;5059315;28;41468;-77
2022/09/23 02:50:41;;;;;;;3.90;3.30;;;;;;;6.70;67.21;99213.81;5091540;28;40123;-77
2022/09/23 02:53:09;;;;;;;3.27;2.90;;;;;;;6.69;66.90;99212.09;5075397;28;41379;-78
2022/09/23 02:55:37;;;;;;;4.00;2.87;;;;;;;6.67;66.86;99214.81;5076600;28;43180;-78
2022/09/23 02:58:05;;;;;;;4.20;3.17;;;;;;;6.66;66.96;99207.00;5076329;28;42053;-77
2022/09/23 03:00:44;;;;;;;3.37;2.73;;;;;;;6.64;67.15;99193.91;5093540;28;40336;-77
2022/09/23 03:03:36;;;;;;;2.97;2.63;;;;;;;6.62;67.02;99198.34;5076039;28;40710;-77
2022/09/23 03:06:13;;;;;;;3.30;2.60;;;;;;;6.61;66.91;99191.38;5093624;28;42796;-78
2022/09/23 03:08:47;;;;;;;2.80;2.60;;;;;;;6.48;66.70;99187.53;5091846;28;42370;-77
2022/09/23 03:11:16;;;;;;;3.43;2.90;;;;;;;6.55;66.78;99204.81;5091175;28;41008;-78
2022/09/23 03:14:06;;;;;;;3.57;2.70;;;;;;;6.49;67.00;99194.50;5075901;28;42139;-77
2022/09/23 03:16:42;;;;;;;3.30;2.50;;;;;;;6.49;66.76;99200.63;5076380;28;43963;-77
2022/09/23 03:19:24;;;;;;;3.20;2.90;;;;;;;6.45;66.87;99192.91;5075661;28;43295;-77
2022/09/23 03:21:59;;;;;;;2.90;2.60;;;;;;;6.42;66.54;99204.44;5076060;28;39151;-78
2022/09/23 03:24:31;;;;;;;3.27;2.80;;;;;;;6.40;66.79;99195.75;5076140;28;40723;-78
2022/09/23 03:27:05;;;;;;;2.97;2.67;;;;;;;6.37;66.75;99197.63;5076064;28;43297;-77
2022/09/23 03:29:36;;;;;;;3.03;2.73;;;;;;;6.34;66.92;99197.75;5076233;28;41112;-78
2022/09/23 03:32:07;;;;;;;3.53;3.10;;;;;;;6.30;67.14;99189.16;5076076;28;38984;-78
2022/09/23 03:34:37;;;;;;;3.63;3.00;;;;;;;6.29;67.09;99197.09;5075611;28;40523;-77
2022/09/23 03:37:12;;;;;;;5.63;2.90;;;;;;;6.28;67.16;99196.25;5075238;28;41663;-79
2022/09/23 03:39:43;;;;;;;2.77;2.33;;;;;;;6.26;67.25;99182.28;5089436;28;42804;-78
2022/09/23 03:42:15;;;;;;;3.33;2.80;;;;;;;6.25;67.05;99179.72;5075476;28;40876;-77
2022/09/23 03:44:45;;;;;;;4.87;3.00;;;;;;;6.11;67.33;99157.44;5059076;28;40312;-78
2022/09/23 03:47:14;;;;;;;2.97;2.77;;;;;;;6.24;67.78;99178.00;5075642;28;42608;-78
2022/09/23 03:49:47;;;;;;;3.53;3.00;;;;;;;6.23;67.71;99177.16;5093685;28;42198;-78
2022/09/23 03:52:15;;;;;;;3.07;2.83;;;;;;;6.12;67.40;99174.94;5090487;28;39948;-78
2022/09/23 03:54:42;;;;;;;3.57;3.10;;;;;;;6.20;67.66;99177.25;5075013;28;41665;-78
2022/09/23 03:57:11;;;;;;;3.80;2.97;;;;;;;6.20;67.46;99173.78;5093511;28;42726;-77
2022/09/23 03:59:39;;;;;;;4.73;2.90;;;;;;;6.18;67.57;99173.84;5058560;28;42265;-78
2022/09/23 04:02:08;;;;;;;2.80;2.60;;;;;;;6.17;67.48;99172.16;5075411;28;39808;-78
2022/09/23 04:04:37;;;;;;;3.03;2.73;;;;;;;6.17;67.72;99173.91;5092266;28;42597;-77
2022/09/23 04:07:06;;;;;;;3.20;3.00;;;;;;;6.15;67.53;99173.13;5075349;28;42586;-78
2022/09/23 04:09:35;;;;;;;3.30;3.00;;;;;;;6.12;67.30;99174.94;5075324;28;42267;-78
2022/09/23 04:12:03;;;;;;;3.13;2.70;;;;;;;6.09;67.32;99167.16;5075767;28;39877;-78
2022/09/23 04:14:31;;;;;;;3.40;2.97;;;;;;;6.07;67.48;99166.38;5092256;28;41834;-77
2022/09/23 04:16:59;;;;;;;3.10;2.80;;;;;;;6.06;67.78;99169.91;5075207;28;42813;-77
2022/09/23 04:19:26;;;;;;;3.00;2.80;;;;;;;6.05;67.98;99160.34;5091728;28;42636;-77
2022/09/23 04:21:54;;;;;;;3.37;3.07;;;;;;;6.06;67.80;99158.53;5092139;28;40753;-77
2022/09/23 04:24:23;;;;;;;4.07;3.50;;;;;;;6.04;67.92;99150.75;5057645;28;41976;-77
2022/09/23 04:26:52;;;;;;;4.03;3.30;;;;;;;6.01;68.05;99150.84;5074892;28;43459;-77
2022/09/23 04:29:20;;;;;;;2.87;2.60;;;;;;;6.02;67.70;99149.94;5074510;28;42004;-77
2022/09/23 04:31:48;;;;;;;3.30;3.00;;;;;;;6.00;67.72;99153.53;5075308;28;39749;-77
2022/09/23 04:34:16;;;;;;;3.30;3.00;;;;;;;5.99;67.64;99152.69;5057631;28;41930;-77
2022/09/23 04:36:45;;;;;;;5.20;3.10;;;;;;;5.96;67.84;99152.78;5057323;28;42847;-77
2022/09/23 04:39:13;;;;;;;3.70;3.17;;;;;;;5.94;67.60;99148.50;5058043;28;42344;-77
2022/09/23 04:41:43;;;;;;;2.90;2.20;;;;;;;5.91;67.84;99149.50;5074705;28;39081;-77
2022/09/23 04:44:11;;;;;;;4.27;2.87;;;;;;;5.89;68.05;99148.69;5074482;28;42701;-77
2022/09/23 04:46:40;;;;;;;4.57;3.13;;;;;;;5.87;68.00;99150.50;5074742;28;43012;-77
2022/09/23 04:49:08;;;;;;;4.23;3.13;;;;;;;5.72;67.80;99133.53;5092156;28;42539;-77
2022/09/23 04:51:35;;;;;;;3.00;2.57;;;;;;;5.82;68.05;99159.47;5057700;28;40940;-78
2022/09/23 04:54:03;;;;;;;4.77;2.90;;;;;;;5.78;67.98;99156.13;5074404;28;41628;-77
2022/09/23 04:56:32;;;;;;;3.50;2.93;;;;;;;5.75;67.96;99150.97;5091706;28;42561;-77
2022/09/23 04:59:01;;;;;;;4.40;2.93;;;;;;;5.79;68.11;99165.72;5057353;28;41157;-77
2022/09/23 05:01:33;;;;;;;3.87;2.80;;;;;;;5.77;68.13;99163.13;5092793;28;41026;-77
2022/09/23 05:04:04;;;;;;;4.13;3.27;;;;;;;5.76;68.11;99160.56;5091978;28;41962;-78
2022/09/23 05:06:33;;;;;;;4.47;3.60;;;;;;;5.76;68.04;99165.81;5070525;28;43530;-77
2022/09/23 05:09:01;;;;;;;3.23;2.90;;;;;;;5.75;68.31;99164.97;5074162;28;43952;-77
2022/09/23 05:11:31;;;;;;;3.87;3.03;;;;;;;5.77;68.15;99171.03;5074385;28;40256;-77
2022/09/23 05:13:59;;;;;;;3.60;3.30;;;;;;;5.77;67.98;99160.50;5091872;28;41604;-77
2022/09/23 05:16:28;;;;;;;2.70;2.47;;;;;;;5.76;68.29;99158.78;5074511;28;42694;-77
2022/09/23 05:18:56;;;;;;;5.07;2.80;;;;;;;5.82;68.14;99162.94;5092066;28;42496;-77
2022/09/23 05:21:27;;;;;;;4.07;2.87;;;;;;;5.73;68.06;99147.53;5092274;28;39909;-79
2022/09/23 05:23:59;;;;;;;3.10;2.83;;;;;;;5.87;68.11;99174.16;5057117;28;40695;-77
2022/09/23 05:26:28;;;;;;;3.57;3.27;;;;;;;5.89;68.22;99169.72;5089351;28;42736;-77
2022/09/23 05:28:57;;;;;;;3.63;3.27;;;;;;;5.92;68.07;99169.63;5091856;28;42172;-77
2022/09/23 05:31:26;;;;;;;4.03;3.47;;;;;;;5.96;68.02;99172.97;5090950;28;40728;-77
2022/09/23 05:33:58;;;;;;;3.97;2.70;;;;;;;5.99;68.17;99171.06;5073708;28;41745;-78
2022/09/23 05:36:27;;;;;;;3.73;3.37;;;;;;;6.02;67.97;99167.47;5090242;28;42647;-78
2022/09/23 05:38:57;;;;;;;4.13;3.07;;;;;;;6.06;68.00;99163.78;5090018;28;42283;-77
2022/09/23 05:41:26;;;;;;;3.40;3.10;;;;;;;6.11;68.09;99175.00;5057139;28;43048;-79
2022/09/23 05:43:55;;;;;;;3.53;2.87;;;;;;;6.17;67.87;99166.03;5090504;28;42042;-78
2022/09/23 05:46:26;;;;;;;3.60;3.30;;;;;;;6.22;68.20;99166.69;5090788;28;42890;-78
2022/09/23 05:48:57;;;;;;;3.07;2.77;;;;;;;6.22;68.19;99158.78;5073573;28;40876;-80
2022/09/23 05:51:27;;;;;;;3.80;3.07;;;;;;;6.33;68.21;99169.72;5084001;28;40552;-79
2022/09/23 05:53:57;;;;;;;4.83;3.27;;;;;;;6.33;67.94;99159.22;5073482;28;40906;-80
2022/09/23 05:56:26;;;;;;;4.00;2.93;;;;;;;6.45;67.75;99161.34;5079056;28;43764;-80
2022/09/23 05:58:55;;;;;;;2.97;2.63;;;;;;;6.43;68.39;99147.38;5090132;28;41433;-80
2022/09/23 06:01:24;;;;;;;4.10;3.67;;;;;;;6.58;69.39;99148.53;5085750;28;40375;-79
2022/09/23 06:03:53;;;;;;;3.57;3.07;;;;;;;6.58;69.48;99144.13;5090241;28;41612;-82
2022/09/23 06:06:29;;;;;;;4.87;4.10;;;;;;;6.78;70.03;99164.38;5091258;28;43864;-83
2022/09/23 06:09:00;;;;;;;4.80;3.53;;;;;;;6.88;69.92;99159.56;5090608;28;41242;-83
2022/09/23 06:11:30;;;;;;;5.77;4.53;;;;;;;6.99;70.78;99157.31;5090101;28;38760;-80
2022/09/23 06:14:01;;;;;;;7.07;4.00;;;;;;;7.11;70.34;99157.66;5090043;28;41831;-80
2022/09/23 06:16:30;;;;;;;5.70;4.40;;;;;;;7.35;70.07;99160.13;5090483;28;42758;-81
2022/09/23 06:19:04;;;;;;;5.23;4.43;;;;;;;7.80;69.83;99160.66;5094873;28;43632;-81
2022/09/23 06:21:34;;;;;;;5.27;3.93;;;;;;;8.33;68.26;99170.50;5094099;28;40282;-80
2022/09/23 06:24:02;;;;;;;5.53;4.30;;;;;;;8.27;68.34;99142.59;5093560;28;41758;-83
2022/09/23 06:26:32;;;;;;;5.20;4.70;;;;;;;8.42;68.54;99148.06;5076287;28;42210;-82
2022/09/23 06:29:01;;;;;;;6.53;4.50;;;;;;;8.38;69.03;99130.69;5094549;28;43314;-80
2022/09/23 06:31:30;;;;;;;5.17;4.70;;;;;;;8.57;69.16;99139.41;5093512;28;39857;-84
2022/09/23 06:33:58;;;;;;;5.33;4.50;;;;;;;8.70;68.80;99140.50;5076509;28;40846;-82
2022/09/23 06:36:26;;;;;;;4.77;4.23;;;;;;;8.79;68.59;99134.75;5075855;28;42719;-83
2022/09/23 06:39:03;;;;;;;6.20;4.33;;;;;;;9.04;68.47;99154.63;5076543;28;41632;-83
2022/09/23 06:41:31;;;;;;;4.80;4.40;;;;;;;9.10;68.59;99138.47;5076498;28;40359;-85
2022/09/23 06:43:59;;;;;;;6.00;5.40;;;;;;;9.37;68.69;99160.81;5093277;28;40606;-84
2022/09/23 06:46:26;;;;;;;5.10;4.70;;;;;;;9.50;68.77;99146.00;5093662;28;42814;-82
2022/09/23 06:48:54;;;;;;;5.10;4.47;;;;;;;9.89;68.23;99150.91;5093379;28;42226;-84
2022/09/23 06:51:23;;;;;;;5.20;4.77;;;;;;;10.43;67.81;99147.00;5110361;28;40699;-82
2022/09/23 06:53:51;;;;;;;4.80;4.40;;;;;;;11.21;65.97;99157.44;5094129;28;42000;-83
2022/09/23 06:56:21;;;;;;;5.60;4.10;;;;;;;12.30;63.33;99174.47;5093043;28;42768;-83
2022/09/23 06:58:51;;;;;;;4.60;4.20;;;;;;;13.79;59.31;99200.78;5093649;28;42419;-83
2022/09/23 07:01:20;;;;;;;4.73;4.20;;;;;;;15.38;55.77;99205.00;5097402;28;38857;-79
2022/09/23 07:03:48;;;;;;;5.27;4.57;;;;;;;17.23;52.06;99217.72;5093818;28;42852;-81
2022/09/23 07:06:17;;;;;;;6.20;4.40;;;;;;;18.80;47.96;99237.03;5093396;28;42882;-81
2022/09/23 07:08:47;;;;;;;6.13;3.97;;;;;;;19.83;45.84;99234.66;5093444;28;43142;-77
2022/09/23 07:11:18;;;;;;;5.17;4.20;;;;;;;20.89;44.02;99234.22;5093504;28;39524;-83
2022/09/23 07:13:47;;;;;;;4.13;3.73;;;;;;;22.19;42.29;99240.72;5093696;28;41134;-90
2022/09/23 07:16:15;;;;;;;4.30;3.63;;;;;;;23.18;39.77;99249.03;5075517;28;42041;-87
2022/09/23 07:18:43;;;;;;;4.20;3.47;;;;;;;24.32;38.15;99204.69;5093137;28;41395;-85
2022/09/23 07:21:13;;;;;;;3.60;3.10;;;;;;;25.62;35.82;99246.47;5092542;28;39779;-87
2022/09/23 07:23:41;;;;;;;3.20;3.00;;;;;;;26.15;35.02;99250.03;5076446;28;41006;-88
2022/09/23 07:26:09;;;;;;;3.63;3.27;;;;;;;26.12;34.39;99262.94;5075633;28;42110;-85
2022/09/23 07:28:37;;;;;;;3.17;2.83;;;;;;;25.18;35.07;99251.69;5092018;28;43253;-88
2022/09/23 07:31:11;;;;;;;3.47;3.17;;;;;;;24.81;35.66;99228.84;5073293;28;38755;-88
2022/09/23 07:33:42;;;;;;;3.67;3.00;;;;;;;25.62;34.79;99232.91;5059839;28;41376;-89
2022/09/23 07:36:12;;;;;;;3.20;3.00;;;;;;;26.82;33.04;99264.41;5070849;28;43009;-85
2022/09/23 07:38:40;;;;;;;3.40;3.10;;;;;;;26.79;32.86;99262.06;5055512;28;42125;-83
2022/09/23 07:41:10;;;;;;;3.50;2.90;;;;;;;26.79;32.64;99233.00;5048139;28;39174;-88
2022/09/23 07:43:39;;;;;;;3.37;3.13;;;;;;;26.46;32.91;99248.00;5075796;28;42445;-88
2022/09/23 07:46:15;;;;;;;3.47;3.10;;;;;;;25.51;33.54;99211.59;5058215;28;43570;-87
2022/09/23 07:48:43;;;;;;;3.20;2.90;;;;;;;24.49;35.13;99229.81;5092524;28;41144;-82
2022/09/23 07:51:14;;;;;;;3.97;3.20;;;;;;;23.61;36.43;99234.41;5075531;28;38921;-86
2022/09/23 07:53:42;;;;;;;3.07;2.87;;;;;;;22.90;37.56;99213.34;5075467;28;42306;-83
2022/09/23 07:56:13;;;;;;;4.60;3.17;;;;;;;22.23;38.69;99220.50;5091918;28;42860;-81
2022/09/23 07:58:40;;;;;;;3.50;3.03;;;;;;;21.69;39.76;99217.09;5075441;28;41224;-81
2022/09/23 08:01:12;;;;;;;3.70;3.40;;;;;;;21.21;40.12;99184.38;5092101;28;38987;-93
2022/09/23 08:03:40;;;;;;;3.80;3.43;;;;;;;21.05;40.65;99188.56;5075106;28;42063;-89
2022/09/23 08:06:10;;;;;;;4.40;3.30;;;;;;;21.67;40.76;99202.06;5091815;28;42333;-87
2022/09/23 08:08:43;;;;;;;3.63;3.27;;;;;;;22.11;39.05;99189.41;5091917;28;42773;-87
2022/09/23 08:11:13;;;;;;;5.03;3.60;;;;;;;22.76;38.29;99204.00;5091894;28;39834;-82
2022/09/23 08:13:41;;;;;;;3.70;3.33;;;;;;;23.26;37.56;99220.16;5075288;28;41430;-82
2022/09/23 08:16:11;;;;;;;4.47;3.33;;;;;;;23.17;37.68;99194.13;5091798;28;41971;-82
2022/09/23 08:18:39;;;;;;;3.53;3.23;;;;;;;23.20;36.93;99220.84;5091813;28;42533;-87
2022/09/23 08:21:06;;;;;;;4.30;3.90;;;;;;;23.11;37.64;99229.94;5075306;28;40109;-81
2022/09/23 08:23:34;;;;;;;3.53;3.23;;;;;;;23.24;37.36;99227.56;5092832;28;43093;-82
2022/09/23 08:26:04;;;;;;;3.90;3.10;;;;;;;23.51;37.27;99212.06;5091511;28;43074;-86
2022/09/23 08:28:34;;;;;;;3.40;3.10;;;;;;;23.55;36.90;99194.50;5075504;28;42462;-86
2022/09/23 08:31:01;;;;;;;3.53;3.23;;;;;;;23.61;36.60;99223.59;5074841;28;39192;-84
2022/09/23 08:33:31;;;;;;;5.80;3.17;;;;;;;23.79;36.73;99212.56;5108452;28;41740;-88
2022/09/23 08:36:04;;;;;;;2.90;2.70;;;;;;;23.81;36.66;99218.66;5090935;28;41639;-83
2022/09/23 08:38:31;;;;;;;3.27;3.00;;;;;;;23.87;36.28;99196.31;5075491;28;41488;-84
2022/09/23 08:41:07;;;;;;;3.43;3.13;;;;;;;23.93;36.57;99201.88;5074478;28;39625;-84
2022/09/23 08:43:37;;;;;;;3.37;3.07;;;;;;;23.68;36.91;99175.91;5091882;28;40722;-87
2022/09/23 08:46:10;;;;;;;3.90;3.30;;;;;;;23.59;37.00;99183.19;5074181;28;41647;-86
2022/09/23 08:48:45;;;;;;;4.20;3.40;;;;;;;23.56;37.19;99194.34;5091136;28;42806;-88
2022/09/23 08:51:16;;;;;;;3.50;3.20;;;;;;;23.35;36.62;99207.50;5074011;28;38846;-87
2022/09/23 08:53:46;;;;;;;3.40;3.10;;;;;;;23.09;37.10;99191.44;5091414;28;41133;-84
2022/09/23 08:56:16;;;;;;;3.60;3.30;;;;;;;23.12;37.21;99210.00;5091232;28;41727;-86
2022/09/23 08:59:00;;;;;;;3.43;3.13;;;;;;;23.10;37.66;99181.47;5091531;28;41850;-88
2022/09/23 09:01:34;;;;;;;3.50;3.20;;;;;;;23.20;37.06;99204.63;5074514;28;39711;-84
2022/09/23 09:04:13;;;;;;;4.10;3.00;;;;;;;23.22;36.82;99186.38;5091458;28;40352;-87
2022/09/23 09:06:42;;;;;;;3.80;2.83;;;;;;;23.32;37.75;99190.78;5074205;28;42057;-85
2022/09/23 09:09:19;;;;;;;3.20;2.90;;;;;;;23.21;37.52;99189.25;5074388;28;41270;-89
2022/09/23 09:11:49;;;;;;;3.13;2.93;;;;;;;23.12;37.14;99180.28;5074515;28;39430;-83
2022/09/23 09:14:22;;;;;;;3.30;3.00;;;;;;;23.17;37.57;99188.72;5091407;28;41770;-83
2022/09/23 09:16:57;;;;;;;4.50;3.43;;;;;;;22.92;36.93;99182.47;5090481;28;42813;-87
2022/09/23 09:19:50;;;;;;;2.90;2.60;;;;;;;22.89;37.62;99187.34;5057528;28;41454;-85
2022/09/23 09:22:23;;;;;;;4.00;3.50;;;;;;;22.47;36.56;99158.53;5071959;28;39160;-91
2022/09/23 09:24:56;;;;;;;4.87;3.57;;;;;;;22.47;37.17;99179.28;5090812;28;41696;-82
2022/09/23 09:27:24;;;;;;;3.30;3.00;;;;;;;22.45;37.84;99168.66;5073999;28;41709;-84
2022/09/23 09:29:54;;;;;;;4.90;3.47;;;;;;;22.69;37.99;99177.81;5074010;28;42650;-83
2022/09/23 09:32:33;;;;;;;3.90;3.50;;;;;;;22.81;36.75;99184.63;5090848;28;40001;-84
2022/09/23 09:35:35;;;;;;;4.27;3.70;;;;;;;22.98;36.74;99178.25;5074550;28;40386;-87
2022/09/23 09:41:42;;;;;;;3.50;3.20;;;;;;;22.66;38.06;99129.53;5086815;27;41969;-88
2022/09/23 09:44:23;;;;;;;3.30;3.00;;;;;;;22.73;37.68;99152.19;5114853;27;38945;-82
2022/09/23 09:47:09;;;;;;;3.37;3.07;;;;;;;22.63;37.60;99140.66;5114375;27;42100;-83
2022/09/23 09:49:43;;;;;;;3.67;3.37;;;;;;;22.63;37.50;99136.09;5114438;27;44498;-82
2022/09/23 09:52:19;;;;;;;3.10;2.80;;;;;;;22.49;36.71;99126.81;5132992;27;42285;-87
2022/09/23 09:54:48;;;;;;;3.00;2.80;;;;;;;22.89;37.30;99157.63;5118851;27;40868;-85
2022/09/23 09:57:28;;;;;;;4.50;2.80;;;;;;;23.07;37.31;99152.94;5118090;27;40725;-85
2022/09/23 09:59:56;;;;;;;3.93;3.20;;;;;;;23.13;37.06;99137.88;5118452;27;42514;-87
2022/09/23 10:02:30;;;;;;;3.70;3.03;;;;;;;23.39;36.16;99154.78;5134753;27;41824;-85
2022/09/23 10:07:47;;;;;;;3.07;2.20;;;;;;;23.66;36.54;99118.44;5120021;27;40764;-87
2022/09/23 10:10:24;;;;;;;3.50;2.80;;;;;;;24.10;35.23;99132.34;5118145;27;42040;-87
2022/09/23 10:12:53;;;;;;;2.73;2.50;;;;;;;24.54;33.92;99161.59;5117624;27;42270;-87
2022/09/23 10:15:30;;;;;;;3.10;2.67;;;;;;;24.99;34.00;99152.69;5117604;27;40089;-84
2022/09/23 10:18:00;;;;;;;3.20;2.63;;;;;;;25.31;33.46;99160.59;5117222;27;40721;-85
2022/09/23 10:20:35;;;;;;;2.60;2.40;;;;;;;25.65;32.70;99160.13;5117082;27;42843;-84
2022/09/23 10:23:08;;;;;;;2.60;2.40;;;;;;;25.63;33.47;99158.63;5117538;27;41246;-84
2022/09/23 10:25:37;;;;;;;3.07;2.50;;;;;;;25.62;32.80;99155.06;5117481;27;40415;-86
2022/09/23 10:28:41;;;;;;;2.63;2.40;;;;;;;25.55;32.03;99161.41;5116993;27;42131;-86
2022/09/23 10:31:12;;;;;;;3.73;2.40;;;;;;;25.40;32.44;99153.22;5117039;27;41647;-86
2022/09/23 10:33:41;;;;;;;3.20;2.07;;;;;;;25.54;33.32;99141.56;5117287;27;42251;-81
2022/09/23 10:36:10;;;;;;;3.40;2.23;;;;;;;25.97;32.02;99150.78;5133937;27;40920;-80
2022/09/23 10:38:39;;;;;;;3.23;2.93;;;;;;;26.23;31.05;99160.34;5116547;27;40499;-82
2022/09/23 10:47:09;;;;;;;3.00;2.20;;;;;;;28.28;29.26;99157.78;5131925;27;41592;-83
2022/09/23 10:49:59;;;;;;;2.47;2.27;;;;;;;28.94;27.24;99170.63;5131224;27;41691;-81
2022/09/23 10:52:44;;;;;;;2.43;2.23;;;;;;;30.14;26.44;99171.53;5133737;27;41803;-80
2022/09/23 10:55:33;;;;;;;2.20;2.10;;;;;;;31.59;25.22;99185.31;5132386;27;42365;-82
2022/09/23 10:58:30;;;;;;;2.37;2.27;;;;;;;32.62;24.05;99176.53;5117268;27;38926;-83
2022/09/23 11:01:09;;;;;;;2.20;2.10;;;;;;;33.54;22.80;99180.72;5082211;27;40713;-87
2022/09/23 11:04:03;;;;;;;2.60;2.40;;;;;;;33.82;22.20;99186.41;5133278;27;42574;-83
2022/09/23 11:06:43;;;;;;;2.42;2.22;;;;;;;34.58;21.97;99182.66;5119180;27;41967;-85
2022/09/23 11:09:29;;;;;;;2.47;2.35;;;;;;;36.16;20.78;99157.94;5136633;27;40138;-82
2022/09/23 11:12:21;;;;;;;2.08;1.98;;;;;;;38.25;19.63;99161.78;5133334;27;41885;-81
2022/09/23 11:15:05;;;;;;;2.28;1.75;;;;;;;39.93;17.05;99180.53;5135069;27;42110;-87
2022/09/23 11:17:58;;;;;;;1.70;1.60;;;;;;;41.22;17.21;99167.56;5116714;27;41312;-79
2022/09/23 11:20:38;;;;;;;2.55;1.50;;;;;;;42.20;16.46;99133.03;5133402;27;39910;-84
2022/09/23 11:23:27;;;;;;;2.78;1.40;;;;;;;43.10;14.99;99156.44;5133117;27;42520;-81
2022/09/23 11:26:04;;;;;;;2.58;2.05;;;;;;;43.37;14.40;99156.59;5116591;27;42900;-81
2022/09/23 11:29:05;;;;;;;3.10;1.90;;;;;;;42.16;14.96;99145.88;5116619;27;42501;-87
2022/09/23 11:31:53;;;;;;;1.92;1.83;;;;;;;40.17;16.08;99101.13;5115032;27;39428;-87
2022/09/23 11:34:59;;;;;;;2.20;2.10;;;;;;;39.07;17.40;99086.25;5116853;27;41764;-90
2022/09/23 11:37:32;;;;;;;2.10;1.85;;;;;;;39.24;17.22;99103.41;5116224;27;41774;-87
2022/09/23 11:40:04;;;;;;;3.28;2.50;;;;;;;40.08;15.92;99102.78;5117211;27;41950;-85
2022/09/23 11:42:36;;;;;;;1.95;1.70;;;;;;;40.92;15.84;99112.19;5116088;27;40806;-89
2022/09/23 11:45:15;;;;;;;1.88;1.75;;;;;;;41.52;16.22;99085.88;5117701;27;41137;-90
2022/09/23 11:47:50;;;;;;;2.13;1.92;;;;;;;42.20;15.40;99087.69;5116455;27;41696;-92
2022/09/23 11:50:24;;;;;;;2.10;1.90;;;;;;;42.57;15.72;99098.09;5116607;27;41736;-86
2022/09/23 11:53:00;;;;;;;1.98;1.88;;;;;;;42.78;15.05;99107.03;5115207;27;39425;-82
2022/09/23 11:55:33;;;;;;;1.95;1.60;;;;;;;42.83;14.29;99096.63;5115253;27;43688;-84
2022/09/23 11:58:06;;;;;;;2.00;1.90;;;;;;;42.79;13.93;99095.56;5115868;27;42627;-86
2022/09/23 12:00:43;;;;;;;2.08;1.60;;;;;;;43.09;14.03;99083.13;5115132;27;41452;-88
2022/09/23 12:03:33;;;;;;;2.10;1.90;;;;;;;43.45;13.99;99080.59;5116539;27;40188;-88
2022/09/23 12:06:06;;;;;;;1.70;1.60;;;;;;;43.85;13.98;99075.41;5115240;27;42133;-86
2022/09/23 12:08:36;;;;;;;1.73;1.63;;;;;;;44.10;13.89;99066.56;5115883;27;41978;-85
2022/09/23 12:11:16;;;;;;;1.83;1.73;;;;;;;44.54;13.56;99063.09;5114880;27;42231;-84
2022/09/23 12:13:50;;;;;;;1.95;1.85;;;;;;;44.94;12.84;99078.13;5131131;27;40146;-84
2022/09/23 12:16:54;;;;;;;1.38;1.27;;;;;;;45.21;12.90;99071.63;5114749;27;41075;-85
2022/09/23 12:20:00;;;;;;;5.68;1.65;;;;;;;45.44;12.48;99064.88;5101576;27;42461;-85